Time;durP1;ratioP1;P1;durP2;ratioP2;P2;SDS_P1;SDS_P2;PMS_P1;PMS_P2;Temp;Humidity;BMP_temperature;BMP_pressure;BME280_temperature;BME280_humidity;BME280_pressure;Samples;Min_cycle;Max_cycle;Signal;HPM_P1;HPM_P2
2022/04/22 00:00:07;;;;;;;7.65;4.35;;;;;;;12.53;94.30;101241.69;5110066;28;20040;-26
2022/04/22 00:02:34;;;;;;;5.68;4.00;;;;;;;12.49;94.05;101235.03;5110949;28;20470;-28
2022/04/22 00:05:03;;;;;;;8.13;4.72;;;;;;;12.47;93.62;101231.72;5110806;28;20424;-29
2022/04/22 00:07:30;;;;;;;7.07;4.50;;;;;;;12.45;93.66;101233.97;5110010;28;20048;-28
2022/04/22 00:09:58;;;;;;;8.13;4.50;;;;;;;12.42;94.03;101231.78;5110279;28;20362;-27
2022/04/22 00:12:26;;;;;;;8.70;5.70;;;;;;;12.38;94.80;101237.16;5103819;28;20054;-29
2022/04/22 00:14:55;;;;;;;7.55;4.35;;;;;;;12.34;95.28;101233.31;5111071;28;20487;-27
2022/04/22 00:17:23;;;;;;;6.35;4.72;;;;;;;12.31;95.31;101236.69;5111702;28;20501;-27
2022/04/22 00:19:51;;;;;;;6.57;4.82;;;;;;;12.27;95.61;101235.63;5112655;28;20519;-29
2022/04/22 00:22:19;;;;;;;7.82;4.80;;;;;;;12.25;95.56;101237.06;5112761;28;20114;-28
2022/04/22 00:24:47;;;;;;;8.65;5.70;;;;;;;12.21;95.94;101222.00;5111622;28;20044;-27
2022/04/22 00:27:15;;;;;;;7.15;5.13;;;;;;;12.18;95.95;101231.88;5112024;28;20040;-27
2022/04/22 00:29:43;;;;;;;7.55;5.25;;;;;;;12.15;95.98;101224.06;5111022;28;20043;-29
2022/04/22 00:32:12;;;;;;;9.30;5.47;;;;;;;12.12;96.37;101235.03;5111940;28;20088;-35
2022/04/22 00:34:40;;;;;;;7.75;5.13;;;;;;;12.08;96.54;101229.19;5101115;28;20043;-35
2022/04/22 00:37:07;;;;;;;8.35;4.93;;;;;;;12.04;96.53;101228.94;5112597;28;20051;-33
2022/04/22 00:39:35;;;;;;;7.90;4.60;;;;;;;12.02;96.61;101235.97;5111421;28;20067;-29
2022/04/22 00:42:10;;;;;;;8.50;4.88;;;;;;;11.99;96.41;101231.00;5112113;27;20047;-27
2022/04/22 00:44:38;;;;;;;10.95;5.45;;;;;;;11.93;96.35;101229.41;5109092;28;20108;-28
2022/04/22 00:47:06;;;;;;;12.68;6.05;;;;;;;11.90;95.96;101235.59;5111687;28;20105;-27
2022/04/22 00:49:35;;;;;;;9.20;4.43;;;;;;;11.89;95.48;101231.13;5110986;28;20099;-27
2022/04/22 00:52:04;;;;;;;8.65;4.78;;;;;;;11.87;95.46;101219.41;5108073;28;20115;-28
2022/04/22 00:54:33;;;;;;;9.27;5.18;;;;;;;11.85;95.19;101230.88;5112015;28;20040;-27
2022/04/22 00:57:01;;;;;;;7.93;5.10;;;;;;;11.85;95.11;101227.25;5112057;28;20071;-29
2022/04/22 00:59:32;;;;;;;8.63;5.03;;;;;;;11.81;95.61;101228.97;5111407;28;20052;-28
2022/04/22 01:02:00;;;;;;;11.25;6.18;;;;;;;11.79;95.84;101220.88;5111876;28;20546;-28
2022/04/22 01:10:00;;;;;;;8.52;5.35;;;;;;;11.68;96.75;101219.31;5111967;28;20139;-27
2022/04/22 01:12:30;;;;;;;11.00;5.97;;;;;;;11.65;97.12;101215.16;5111926;28;20050;-29
2022/04/22 01:14:58;;;;;;;10.48;6.20;;;;;;;11.62;97.26;101210.16;5110949;28;20456;-28
2022/04/22 01:17:27;;;;;;;9.85;6.18;;;;;;;11.58;97.54;101209.13;5111655;28;20051;-28
2022/04/22 01:19:55;;;;;;;10.65;6.13;;;;;;;11.57;97.60;101206.63;5111337;28;20532;-33
2022/04/22 01:22:24;;;;;;;9.43;6.25;;;;;;;11.55;97.81;101206.06;5111230;28;20051;-28
2022/04/22 01:25:01;;;;;;;10.20;5.97;;;;;;;11.53;97.75;101191.56;5111922;28;20450;-28
2022/04/22 01:27:30;;;;;;;9.27;5.93;;;;;;;11.49;97.78;101202.50;5110851;28;20044;-27
2022/04/22 01:29:58;;;;;;;9.65;5.70;;;;;;;11.46;97.87;101194.69;5111515;28;20039;-30
2022/04/22 01:32:27;;;;;;;7.95;5.72;;;;;;;11.42;98.20;101184.41;5111799;28;20048;-27
2022/04/22 01:34:54;;;;;;;10.27;5.93;;;;;;;11.40;97.91;101185.53;5110806;28;20100;-28
2022/04/22 01:37:24;;;;;;;8.23;6.22;;;;;;;11.38;98.20;101184.19;5111527;28;20099;-31
2022/04/22 01:39:52;;;;;;;8.43;5.93;;;;;;;11.34;98.48;101181.16;5111535;28;20047;-28
2022/04/22 01:42:20;;;;;;;9.52;6.03;;;;;;;11.32;98.52;101172.25;5109184;28;20044;-28
2022/04/22 01:44:49;;;;;;;9.57;6.20;;;;;;;11.27;99.18;101171.44;5111192;28;20047;-28
2022/04/22 01:47:17;;;;;;;12.32;6.40;;;;;;;11.24;99.26;101172.88;5111627;28;20317;-27
2022/04/22 01:49:45;;;;;;;9.80;6.63;;;;;;;11.22;99.65;101183.50;5110818;28;20048;-27
2022/04/22 01:52:13;;;;;;;9.20;5.63;;;;;;;11.20;99.79;101177.38;5111356;28;20138;-30
2022/04/22 01:54:42;;;;;;;11.20;6.50;;;;;;;11.18;99.91;101179.66;5111237;28;20040;-27
2022/04/22 01:57:10;;;;;;;10.25;6.55;;;;;;;11.14;100.00;101169.38;5110340;28;20135;-30
2022/04/22 01:59:38;;;;;;;10.43;5.72;;;;;;;11.12;100.00;101178.03;5111315;28;20048;-29
2022/04/22 02:02:06;;;;;;;8.93;6.03;;;;;;;11.09;100.00;101175.84;5110229;28;20512;-28
2022/04/22 02:04:34;;;;;;;12.77;6.88;;;;;;;11.06;100.00;101179.22;5110521;28;20055;-27
2022/04/22 02:07:03;;;;;;;10.63;6.53;;;;;;;11.04;100.00;101173.09;5111099;28;20043;-27
2022/04/22 02:09:31;;;;;;;10.82;6.35;;;;;;;11.01;100.00;101176.47;5109098;28;20413;-27
2022/04/22 02:12:00;;;;;;;8.43;6.15;;;;;;;11.00;100.00;101177.59;5110861;28;20051;-28
2022/04/22 02:14:28;;;;;;;9.57;6.35;;;;;;;10.99;100.00;101178.75;5111333;28;20477;-32
2022/04/22 02:16:56;;;;;;;10.75;6.53;;;;;;;10.98;100.00;101183.50;5110229;28;20036;-27
2022/04/22 02:19:29;;;;;;;10.07;5.63;;;;;;;10.95;100.00;101175.69;5109335;28;20043;-29
2022/04/22 02:21:58;;;;;;;8.93;5.30;;;;;;;10.95;100.00;101174.88;5110958;28;20086;-27
2022/04/22 02:24:25;;;;;;;10.55;5.93;;;;;;;10.95;100.00;101177.66;5110388;28;20549;-27
2022/04/22 02:29:40;;;;;;;7.53;4.50;;;;;;;10.91;100.00;101179.38;5109722;28;20058;-35
2022/04/22 02:32:09;;;;;;;6.88;4.78;;;;;;;10.90;100.00;101183.28;5107023;28;20112;-35
2022/04/22 02:34:37;;;;;;;8.43;5.32;;;;;;;10.87;100.00;101178.28;5114757;27;20123;-29
2022/04/22 02:37:05;;;;;;;8.55;5.00;;;;;;;10.84;100.00;101170.50;5114629;28;20044;-27
2022/04/22 02:39:33;;;;;;;8.00;5.35;;;;;;;10.82;100.00;101178.31;5113942;27;20054;-30
2022/04/22 02:47:33;;;;;;;8.95;4.40;;;;;;;10.79;100.00;101173.34;5114592;28;20047;-31
2022/04/22 02:50:01;;;;;;;7.85;5.30;;;;;;;10.79;100.00;101164.97;5114430;28;20047;-27
2022/04/22 02:52:28;;;;;;;7.82;5.30;;;;;;;10.78;100.00;101166.09;5113701;28;20051;-27
2022/04/22 02:54:56;;;;;;;10.13;6.15;;;;;;;10.78;100.00;101168.91;5114287;28;20036;-27
2022/04/22 02:57:24;;;;;;;8.70;5.47;;;;;;;10.77;100.00;101170.03;5114155;28;20518;-28
2022/04/22 02:59:53;;;;;;;9.88;6.38;;;;;;;10.76;100.00;101171.16;5113308;28;20047;-28
2022/04/22 03:02:21;;;;;;;11.45;7.20;;;;;;;10.72;100.00;101168.09;5113907;28;20116;-26
2022/04/22 03:04:49;;;;;;;8.50;5.85;;;;;;;10.68;100.00;101167.84;5114464;28;20073;-27
2022/04/22 03:07:17;;;;;;;13.57;6.50;;;;;;;10.63;100.00;101165.09;5113421;28;20052;-27
2022/04/22 03:09:45;;;;;;;12.23;6.70;;;;;;;10.61;100.00;101166.50;5113952;28;20074;-28
2022/04/22 03:12:14;;;;;;;10.70;6.75;;;;;;;10.58;100.00;101164.31;5114345;28;20461;-28
2022/04/22 03:14:44;;;;;;;12.32;6.45;;;;;;;10.56;100.00;101163.78;5113293;28;20075;-27
2022/04/22 03:17:13;;;;;;;11.93;6.75;;;;;;;10.53;100.00;101165.19;5113967;28;20071;-30
2022/04/22 03:19:42;;;;;;;13.05;6.82;;;;;;;10.49;100.00;101166.91;5112929;28;20047;-27
2022/04/22 03:22:10;;;;;;;12.05;6.65;;;;;;;10.46;100.00;101170.25;5113929;28;20481;-27
2022/04/22 03:24:38;;;;;;;9.25;5.40;;;;;;;10.43;100.00;101161.63;5114038;28;20388;-32
2022/04/22 03:27:06;;;;;;;9.40;6.75;;;;;;;10.39;100.00;101158.63;5113263;28;20042;-28
2022/04/22 03:29:35;;;;;;;13.18;7.20;;;;;;;10.38;100.00;101153.31;5113749;28;20048;-27
2022/04/22 03:32:03;;;;;;;12.00;7.25;;;;;;;10.34;100.00;101155.84;5113629;28;20039;-28
2022/04/22 03:34:32;;;;;;;11.77;7.22;;;;;;;10.31;100.00;101157.28;5112692;28;20175;-29
2022/04/22 03:37:01;;;;;;;12.60;7.13;;;;;;;10.28;100.00;101157.84;5111960;28;20112;-28
2022/04/22 03:39:28;;;;;;;10.20;6.88;;;;;;;10.27;100.00;101161.75;5111630;28;20039;-27
2022/04/22 03:41:57;;;;;;;12.95;6.95;;;;;;;10.25;100.00;101152.00;5112400;28;20056;-28
2022/04/22 03:44:25;;;;;;;11.80;7.07;;;;;;;10.21;100.00;101146.16;5113321;28;20050;-26
2022/04/22 03:46:53;;;;;;;11.73;6.65;;;;;;;10.21;100.00;101150.91;5113411;28;20040;-27
2022/04/22 03:49:21;;;;;;;12.55;7.50;;;;;;;10.19;100.00;101159.56;5112483;27;20075;-27
2022/04/22 03:51:50;;;;;;;12.05;7.47;;;;;;;10.18;100.00;101151.50;5113407;28;20039;-34
2022/04/22 03:54:22;;;;;;;13.93;6.80;;;;;;;10.17;100.00;101156.22;5113216;28;20054;-28
2022/04/22 03:59:36;;;;;;;11.77;6.70;;;;;;;10.13;100.00;101157.09;5113550;28;20043;-27
2022/04/22 04:02:04;;;;;;;14.48;7.85;;;;;;;10.12;100.00;101153.47;5112151;28;20055;-28
2022/04/22 04:04:32;;;;;;;12.05;7.15;;;;;;;10.13;100.00;101154.31;5112883;28;20124;-27
2022/04/22 04:07:01;;;;;;;10.75;7.40;;;;;;;10.14;100.00;101155.97;5113089;28;20044;-27
2022/04/22 04:17:45;;;;;;;13.15;7.10;;;;;;;10.09;100.00;101153.22;5111767;27;20549;-29
2022/04/22 04:23:18;;;;;;;11.73;7.00;;;;;;;10.06;100.00;101153.78;5111448;28;20062;-31
2022/04/22 04:25:48;;;;;;;9.27;5.28;;;;;;;10.02;100.00;101147.94;5112638;28;20040;-31
2022/04/22 04:28:17;;;;;;;9.80;5.57;;;;;;;9.97;100.00;101151.63;5112396;28;20040;-28
2022/04/22 04:30:46;;;;;;;10.73;6.28;;;;;;;9.95;100.00;101147.44;5111944;28;20040;-27
2022/04/22 04:33:14;;;;;;;10.95;6.22;;;;;;;9.91;100.00;101147.19;5112208;28;20040;-29
2022/04/22 04:35:46;;;;;;;9.85;5.85;;;;;;;9.88;100.00;101149.72;5112184;27;20053;-28
2022/04/22 04:38:16;;;;;;;8.55;5.55;;;;;;;9.86;100.00;101151.94;5111711;28;20039;-32
2022/04/22 04:40:43;;;;;;;8.30;5.38;;;;;;;9.85;100.00;101150.28;5112137;28;20059;-28
2022/04/22 04:43:11;;;;;;;10.05;5.13;;;;;;;9.82;100.00;101160.03;5112283;27;20427;-30
2022/04/22 04:45:39;;;;;;;7.85;4.85;;;;;;;9.81;100.00;101158.38;5111413;28;20047;-29
2022/04/22 04:48:08;;;;;;;11.73;4.78;;;;;;;9.79;100.00;101163.41;5111889;28;20040;-27
2022/04/22 04:50:36;;;;;;;7.55;4.45;;;;;;;9.76;100.00;101155.66;5112187;28;20408;-29
2022/04/22 04:53:03;;;;;;;6.40;4.32;;;;;;;9.77;100.00;101159.25;5110484;28;20058;-29
2022/04/22 04:55:32;;;;;;;10.23;5.20;;;;;;;9.76;100.00;101158.44;5112041;28;20052;-27
2022/04/22 04:58:00;;;;;;;7.57;4.85;;;;;;;9.75;100.00;101153.97;5108020;28;20036;-28
2022/04/22 05:00:28;;;;;;;9.30;5.10;;;;;;;9.75;100.00;101162.34;5112146;28;20416;-33
2022/04/22 05:02:57;;;;;;;7.88;4.35;;;;;;;9.74;100.00;101149.53;5111819;28;20066;-28
2022/04/22 05:05:29;;;;;;;8.15;4.97;;;;;;;9.72;100.00;101156.50;5107876;28;20054;-29
2022/04/22 05:07:59;;;;;;;10.68;5.05;;;;;;;9.72;100.00;101145.34;5111922;28;20121;-29
2022/04/22 05:10:29;;;;;;;6.57;4.22;;;;;;;9.73;100.00;101150.63;5111737;28;20048;-29
2022/04/22 05:12:59;;;;;;;7.88;4.32;;;;;;;9.74;100.00;101143.94;5110841;28;20089;-29
2022/04/22 05:15:28;;;;;;;7.00;3.80;;;;;;;9.74;100.00;101152.31;5111634;28;20409;-27
2022/04/22 05:17:57;;;;;;;9.15;5.10;;;;;;;9.74;100.00;101152.31;5111679;28;20055;-28
2022/04/22 05:20:26;;;;;;;7.57;4.43;;;;;;;9.76;100.00;101154.81;5110612;28;20047;-29
2022/04/22 05:22:55;;;;;;;8.93;4.55;;;;;;;9.76;100.00;101160.38;5111582;28;20117;-30
2022/04/22 05:25:25;;;;;;;9.27;4.43;;;;;;;9.75;100.00;101148.41;5111477;28;20164;-29
2022/04/22 05:27:53;;;;;;;8.35;4.78;;;;;;;9.76;100.00;101158.44;5110856;28;20073;-27
2022/04/22 05:33:08;;;;;;;7.53;4.88;;;;;;;9.78;100.00;101150.63;5104568;28;20134;-28
2022/04/22 05:35:36;;;;;;;8.88;4.55;;;;;;;9.80;100.00;101147.50;5110884;28;20146;-28
2022/04/22 05:38:06;;;;;;;5.28;3.33;;;;;;;9.83;100.00;101150.56;5111255;28;20052;-28
2022/04/22 05:40:36;;;;;;;8.10;4.53;;;;;;;9.86;100.00;101157.53;5105647;28;20552;-29
2022/04/22 05:43:05;;;;;;;8.05;4.35;;;;;;;9.89;100.00;101148.59;5110406;28;20049;-29
2022/04/22 05:45:37;;;;;;;7.55;5.15;;;;;;;9.92;100.00;101146.06;5110327;28;20052;-27
2022/04/22 05:48:06;;;;;;;6.93;4.33;;;;;;;9.95;100.00;101142.72;5109663;28;20089;-28
2022/04/22 05:50:34;;;;;;;8.32;4.63;;;;;;;9.97;100.00;101145.22;5109654;28;20277;-27
2022/04/22 05:53:02;;;;;;;8.63;4.60;;;;;;;9.99;100.00;101152.13;5109884;28;20128;-29
2022/04/22 05:55:30;;;;;;;9.07;4.22;;;;;;;10.02;100.00;101148.78;5109373;28;20046;-29
2022/04/22 05:57:59;;;;;;;8.18;4.78;;;;;;;10.03;100.00;101158.81;5109954;28;20105;-28
2022/04/22 06:00:30;;;;;;;8.00;4.53;;;;;;;10.06;100.00;101153.78;5109965;28;20052;-28
2022/04/22 06:03:00;;;;;;;9.63;4.70;;;;;;;10.07;100.00;101152.66;5109036;28;20169;-27
2022/04/22 06:05:28;;;;;;;8.23;5.45;;;;;;;10.08;100.00;101157.13;5108932;28;20035;-28
2022/04/22 06:10:42;;;;;;;10.57;5.20;;;;;;;10.10;100.00;101157.66;5111649;28;20047;-30
2022/04/22 06:13:10;;;;;;;7.72;4.78;;;;;;;10.14;100.00;101154.03;5114008;28;20514;-32
2022/04/22 06:15:38;;;;;;;7.72;4.60;;;;;;;10.18;100.00;101151.50;5112615;28;20067;-34
2022/04/22 06:18:07;;;;;;;7.95;4.80;;;;;;;10.19;100.00;101154.00;5114218;28;20452;-35
2022/04/22 06:20:35;;;;;;;12.75;4.75;;;;;;;10.22;100.00;101149.78;5113717;28;20043;-30
2022/04/22 06:23:03;;;;;;;9.35;4.60;;;;;;;10.23;100.00;101140.31;5109699;28;20432;-33
2022/04/22 06:25:31;;;;;;;7.07;4.57;;;;;;;10.27;100.00;101149.75;5113585;28;20144;-28
2022/04/22 06:27:59;;;;;;;9.00;4.50;;;;;;;10.29;100.00;101147.53;5113258;28;20035;-30
2022/04/22 06:30:27;;;;;;;6.40;4.85;;;;;;;10.33;100.00;101148.63;5112883;28;20143;-30
2022/04/22 06:32:55;;;;;;;7.55;4.53;;;;;;;10.43;100.00;101145.72;5111760;28;20058;-30
2022/04/22 06:35:26;;;;;;;7.40;4.20;;;;;;;10.60;100.00;101148.09;5113474;28;20207;-33
2022/04/22 06:37:54;;;;;;;6.05;3.50;;;;;;;10.83;100.00;101149.28;5112786;28;20129;-29
2022/04/22 06:45:56;;;;;;;8.52;3.85;;;;;;;11.87;96.24;101138.31;5113081;28;20134;-28
2022/04/22 06:48:29;;;;;;;9.15;3.92;;;;;;;12.16;94.75;101138.19;5113265;28;20058;-29
2022/04/22 06:51:19;;;;;;;5.38;3.17;;;;;;;12.67;93.63;101141.78;5112176;28;20055;-30
2022/04/22 06:53:47;;;;;;;8.45;3.70;;;;;;;13.10;90.62;101147.19;5113271;28;20520;-33
2022/04/22 06:56:15;;;;;;;7.47;3.85;;;;;;;13.48;87.55;101147.88;5113024;28;20040;-29
2022/04/22 06:58:44;;;;;;;5.82;3.13;;;;;;;13.85;84.36;101146.78;5112238;28;20112;-29
2022/04/22 07:01:12;;;;;;;5.35;3.75;;;;;;;14.10;83.08;101146.22;5113102;28;20043;-28
2022/04/22 07:04:00;;;;;;;5.85;3.20;;;;;;;14.57;80.69;101138.38;5111027;28;20069;-29
2022/04/22 07:06:31;;;;;;;6.15;3.00;;;;;;;14.99;76.85;101150.19;5113021;28;20450;-29
2022/04/22 07:08:59;;;;;;;4.95;3.00;;;;;;;15.13;72.96;101140.56;5113801;28;20051;-29
2022/04/22 07:11:29;;;;;;;5.28;3.55;;;;;;;15.19;72.37;101138.41;5113884;28;20043;-28
2022/04/22 07:13:58;;;;;;;5.40;2.95;;;;;;;15.43;67.69;101127.59;5113529;28;20066;-28
2022/04/22 07:16:26;;;;;;;5.68;3.40;;;;;;;15.76;68.66;101127.25;5113410;28;20047;-28
2022/04/22 07:18:56;;;;;;;5.07;2.50;;;;;;;15.91;66.39;101123.97;5113026;28;20536;-29
2022/04/22 07:21:25;;;;;;;5.13;2.80;;;;;;;16.23;64.87;101119.00;5112979;28;20079;-28
2022/04/22 07:23:55;;;;;;;5.13;2.63;;;;;;;16.54;63.90;101119.66;5114045;28;20134;-30
2022/04/22 07:26:25;;;;;;;5.47;2.55;;;;;;;16.99;62.09;101110.81;5112960;28;20052;-31
2022/04/22 07:28:57;;;;;;;5.32;2.63;;;;;;;17.35;59.97;101122.47;5113577;28;20385;-29
2022/04/22 07:31:29;;;;;;;5.57;2.77;;;;;;;17.58;58.48;101120.22;5113450;28;20058;-29
2022/04/22 07:33:57;;;;;;;4.10;2.30;;;;;;;17.73;56.68;101118.81;5112877;28;20101;-34
2022/04/22 07:36:25;;;;;;;3.90;2.20;;;;;;;17.93;55.91;101109.56;5113484;28;20419;-28
2022/04/22 07:38:54;;;;;;;5.18;2.35;;;;;;;18.02;54.85;101118.78;5113306;28;20039;-31
2022/04/22 07:41:27;;;;;;;;;;;;;;;18.31;51.27;101112.25;5112260;28;20108;-29
2022/04/22 07:46:58;;;;;;;4.60;1.85;;;;;;;19.03;51.18;101110.06;5113405;28;20044;-29
2022/04/22 07:49:28;;;;;;;3.63;2.05;;;;;;;19.07;50.03;101113.84;5112912;28;20049;-29
2022/04/22 07:51:56;;;;;;;4.50;1.98;;;;;;;19.16;50.82;101120.22;5113098;28;20039;-24
2022/04/22 07:54:28;;;;;;;3.70;2.10;;;;;;;19.46;49.65;101110.34;5112082;28;20044;-29
2022/04/22 07:56:56;;;;;;;3.58;1.85;;;;;;;19.62;47.68;101116.16;5112687;28;20218;-29
2022/04/22 07:59:26;;;;;;;4.22;1.60;;;;;;;19.44;47.85;101114.69;5111640;28;20595;-29
2022/04/22 08:01:54;;;;;;;4.80;2.03;;;;;;;19.55;48.96;101098.94;5111964;28;20567;-29
2022/04/22 08:04:22;;;;;;;3.65;1.98;;;;;;;19.91;48.07;101112.25;5112940;28;20101;-35
2022/04/22 08:06:51;;;;;;;4.57;2.13;;;;;;;20.04;46.55;101108.19;5112950;28;20079;-30
2022/04/22 08:09:40;;;;;;;3.92;1.90;;;;;;;20.25;46.14;101100.34;5110541;28;20039;-28
2022/04/22 08:12:09;;;;;;;4.90;2.10;;;;;;;20.56;45.36;101108.19;5112643;28;20043;-29
2022/04/22 08:14:37;;;;;;;3.47;1.95;;;;;;;20.76;44.00;101097.00;5111352;28;20467;-30
2022/04/22 08:17:05;;;;;;;3.28;2.00;;;;;;;20.79;42.71;101119.78;5111820;28;20048;-30
2022/04/22 08:19:33;;;;;;;5.85;2.42;;;;;;;20.86;43.68;101102.13;5110981;28;20042;-30
2022/04/22 08:22:01;;;;;;;3.53;2.00;;;;;;;20.98;43.20;101111.38;5106885;28;20070;-27
2022/04/22 08:24:29;;;;;;;4.75;2.00;;;;;;;21.07;43.45;101101.88;5111820;28;20051;-34
2022/04/22 08:26:59;;;;;;;3.95;1.80;;;;;;;21.26;42.73;101097.19;5111237;28;20139;-30
2022/04/22 08:29:27;;;;;;;4.03;1.80;;;;;;;21.50;41.95;101103.84;5110326;28;20048;-32
2022/04/22 08:31:55;;;;;;;2.60;1.50;;;;;;;21.58;42.25;101103.66;5111876;28;20213;-29
2022/04/22 08:34:23;;;;;;;3.97;2.08;;;;;;;21.83;41.38;101106.28;5110318;28;20052;-29
2022/04/22 08:36:51;;;;;;;3.03;1.80;;;;;;;21.74;39.88;101111.34;5109630;28;20088;-34
2022/04/22 08:39:20;;;;;;;4.22;1.95;;;;;;;21.51;40.79;101105.50;5104062;28;20051;-26
2022/04/22 08:41:49;;;;;;;3.28;2.00;;;;;;;21.51;40.45;101105.50;5112027;28;20043;-34
2022/04/22 08:44:22;;;;;;;3.42;1.83;;;;;;;21.57;39.33;101099.19;5111241;28;20042;-31
2022/04/22 08:52:23;;;;;;;4.80;2.00;;;;;;;21.93;39.02;101105.72;5111241;28;20050;-28
2022/04/22 08:54:54;;;;;;;2.58;1.58;;;;;;;21.97;38.54;101098.94;5104932;28;20044;-28
2022/04/22 08:57:22;;;;;;;3.08;1.60;;;;;;;21.95;38.15;101114.69;5111138;28;20126;-28
2022/04/22 08:59:52;;;;;;;3.85;1.70;;;;;;;21.81;38.33;101103.81;5111689;28;20093;-30
2022/04/22 09:02:20;;;;;;;3.17;1.67;;;;;;;21.97;38.95;101093.25;5111405;28;20040;-33
2022/04/22 09:04:48;;;;;;;3.75;1.73;;;;;;;22.16;38.32;101103.84;5111096;28;20451;-29
2022/04/22 09:07:18;;;;;;;4.05;1.42;;;;;;;22.46;37.49;101089.88;5111673;28;20050;-29
2022/04/22 09:09:49;;;;;;;3.65;1.80;;;;;;;22.28;36.75;101092.34;5111559;28;20504;-27
2022/04/22 09:12:20;;;;;;;4.28;1.80;;;;;;;21.84;37.53;101090.88;5110899;28;20549;-30
2022/04/22 09:14:49;;;;;;;2.35;1.48;;;;;;;21.77;38.33;101085.88;5111545;28;20049;-28
2022/04/22 09:17:23;;;;;;;2.63;1.50;;;;;;;21.94;37.44;101088.31;5111827;28;20397;-33
2022/04/22 09:19:53;;;;;;;3.80;1.65;;;;;;;22.07;37.06;101074.81;5110964;28;20050;-28
2022/04/22 09:22:22;;;;;;;3.53;1.80;;;;;;;22.37;36.99;101071.41;5111396;28;20051;-29
2022/04/22 09:24:51;;;;;;;3.88;1.50;;;;;;;22.59;37.07;101060.06;5111508;28;20512;-30
2022/04/22 09:27:20;;;;;;;3.15;1.58;;;;;;;22.98;36.72;101060.84;5110360;28;20047;-29
2022/04/22 09:29:53;;;;;;;5.43;1.70;;;;;;;23.19;35.61;101056.72;5111632;28;20134;-29
2022/04/22 09:32:27;;;;;;;3.92;1.80;;;;;;;23.19;36.24;101059.56;5110725;28;20389;-32
2022/04/22 09:34:57;;;;;;;6.85;2.00;;;;;;;23.23;35.67;101057.63;5100795;28;20059;-35
2022/04/22 09:43:14;;;;;;;3.08;1.52;;;;;;;23.31;35.81;101039.47;5102208;28;20047;-31
2022/04/22 09:45:42;;;;;;;3.58;1.88;;;;;;;23.20;35.50;101039.25;5111012;28;20395;-29
2022/04/22 09:48:17;;;;;;;3.63;1.80;;;;;;;23.15;35.70;101035.94;5110625;28;20134;-30
2022/04/22 09:50:46;;;;;;;4.07;1.52;;;;;;;23.14;35.94;101037.97;5111404;28;20063;-30
2022/04/22 09:53:16;;;;;;;4.78;2.38;;;;;;;23.22;36.51;101027.50;5110797;28;20035;-30
2022/04/22 09:55:53;;;;;;;3.92;1.90;;;;;;;23.32;35.92;101035.41;5110461;28;20043;-29
2022/04/22 09:58:24;;;;;;;3.38;1.65;;;;;;;23.47;36.12;101034.44;5110996;28;20484;-34
2022/04/22 10:01:01;;;;;;;4.10;1.83;;;;;;;23.59;35.53;101034.22;5110388;28;20047;-30
2022/04/22 10:03:32;;;;;;;3.00;1.40;;;;;;;23.66;35.60;101025.81;5111239;28;20043;-32
2022/04/22 10:06:01;;;;;;;4.90;1.80;;;;;;;23.44;35.46;101020.94;5110804;28;20484;-33
2022/04/22 10:08:34;;;;;;;4.07;1.83;;;;;;;23.21;35.47;101025.84;5110067;28;20125;-37
2022/04/22 10:11:03;;;;;;;5.32;1.80;;;;;;;23.00;35.77;101024.28;5110776;28;20044;-32
2022/04/22 10:13:34;;;;;;;3.90;2.00;;;;;;;22.87;36.87;101022.84;5107464;28;20051;-30
2022/04/22 10:16:02;;;;;;;5.07;2.23;;;;;;;22.66;37.47;101014.69;5110271;28;20054;-29
2022/04/22 10:18:32;;;;;;;7.72;2.50;;;;;;;22.48;38.02;101009.84;5110679;28;20376;-37
2022/04/22 10:21:00;;;;;;;5.82;2.55;;;;;;;22.41;38.22;101012.56;5107736;28;20042;-33
2022/04/22 10:23:30;;;;;;;3.90;1.90;;;;;;;22.32;39.00;101010.78;5108585;28;20539;-31
2022/04/22 10:25:58;;;;;;;6.53;2.20;;;;;;;22.33;38.69;101003.91;5110970;28;20260;-29
2022/04/22 10:28:28;;;;;;;5.82;2.38;;;;;;;22.43;38.73;100993.09;5110828;28;20147;-29
2022/04/22 10:31:00;;;;;;;5.65;2.03;;;;;;;22.53;38.83;101009.56;5110064;28;20062;-29
2022/04/22 10:33:38;;;;;;;3.17;1.70;;;;;;;22.71;38.90;101007.06;5110894;28;20072;-31
2022/04/22 10:36:12;;;;;;;7.22;2.78;;;;;;;22.84;38.21;101012.19;5110132;28;20067;-29
2022/04/22 10:38:41;;;;;;;3.92;2.00;;;;;;;22.79;38.08;101006.81;5110735;28;20044;-29
2022/04/22 10:41:16;;;;;;;4.72;2.00;;;;;;;22.93;37.66;101001.41;5110216;28;20059;-31
2022/04/22 10:43:44;;;;;;;4.07;1.75;;;;;;;22.93;37.83;101006.28;5110019;28;20497;-29
2022/04/22 10:49:12;;;;;;;5.28;1.90;;;;;;;23.16;37.11;100997.72;5110874;28;20043;-29
2022/04/22 10:51:55;;;;;;;;;;;;;;;23.03;35.97;101000.75;5110535;28;20051;-34
2022/04/22 10:55:03;;;;;;;5.07;2.10;;;;;;;22.96;37.70;101000.66;5111999;27;19919;-30
2022/04/22 10:57:33;;;;;;;3.63;1.50;;;;;;;23.04;38.24;100998.72;5113073;28;20051;-30
2022/04/22 11:00:27;;;;;;;4.97;2.10;;;;;;;23.20;38.35;100996.56;5114074;28;20126;-31
2022/04/22 11:03:13;;;;;;;4.72;1.85;;;;;;;23.31;39.60;100999.59;5103789;28;20059;-30
2022/04/22 11:05:47;;;;;;;6.38;2.40;;;;;;;23.16;39.78;100990.00;5113457;28;20401;-30
2022/04/22 11:08:29;;;;;;;7.43;2.17;;;;;;;23.08;41.01;100990.25;5114227;27;20416;-30
2022/04/22 11:11:18;;;;;;;5.43;2.35;;;;;;;23.15;41.09;100991.22;5102751;28;20056;-28
2022/04/22 11:13:50;;;;;;;9.40;2.50;;;;;;;23.04;41.58;100990.19;5114098;28;20139;-32
2022/04/22 11:16:26;;;;;;;;;;;;;;;22.68;41.95;100991.56;5114630;28;20039;-33
2022/04/22 11:19:25;;;;;;;7.07;2.22;;;;;;;22.39;42.93;100984.50;5113264;28;19969;-32
2022/04/22 11:21:55;;;;;;;6.30;2.75;;;;;;;22.19;43.68;100986.53;5113686;28;20475;-29
2022/04/22 11:24:25;;;;;;;8.20;2.10;;;;;;;22.01;43.74;100976.81;5113779;28;20053;-32
2022/04/22 11:27:04;;;;;;;6.57;2.13;;;;;;;22.04;44.11;100976.06;5111793;28;20045;-29
2022/04/22 11:29:32;;;;;;;6.30;2.38;;;;;;;21.94;44.63;100980.31;5113667;28;20454;-31
2022/04/22 11:32:12;;;;;;;7.32;2.58;;;;;;;21.75;44.55;100973.81;5112584;28;20546;-34
2022/04/22 11:35:12;;;;;;;6.70;2.42;;;;;;;21.80;44.40;100976.31;5113577;28;20047;-34
2022/04/22 11:37:40;;;;;;;6.72;2.13;;;;;;;21.59;44.96;100980.34;5109975;28;20079;-26
2022/04/22 11:40:09;;;;;;;6.57;2.08;;;;;;;21.55;45.22;100976.63;5112329;28;20044;-29
2022/04/22 11:42:45;;;;;;;6.22;1.98;;;;;;;21.55;45.56;100973.78;5113261;28;20142;-26
2022/04/22 11:45:15;;;;;;;6.45;1.80;;;;;;;21.81;45.56;100978.81;5113369;28;20051;-28
2022/04/22 11:47:44;;;;;;;5.65;1.98;;;;;;;21.87;45.05;100982.19;5112493;28;20492;-35
2022/04/22 11:50:19;;;;;;;4.88;1.80;;;;;;;22.00;44.46;100978.00;5113145;28;20459;-29
2022/04/22 11:52:52;;;;;;;6.78;2.28;;;;;;;21.85;44.05;100978.88;5113056;28;20058;-28
2022/04/22 11:55:21;;;;;;;7.10;2.40;;;;;;;21.67;44.51;100973.63;5112763;28;20059;-30
2022/04/22 11:57:50;;;;;;;5.43;1.80;;;;;;;21.54;45.13;100974.16;5112953;28;20043;-29
2022/04/22 12:05:48;;;;;;;8.25;2.30;;;;;;;21.18;44.68;100975.31;5113074;28;20054;-31
2022/04/22 12:08:17;;;;;;;6.22;2.17;;;;;;;21.03;44.76;100965.59;5112127;28;20043;-28
2022/04/22 12:10:46;;;;;;;8.13;2.40;;;;;;;20.80;45.10;100945.56;5112641;28;20039;-31
2022/04/22 12:13:16;;;;;;;7.28;2.20;;;;;;;20.64;46.12;100964.59;5112749;28;20053;-28
2022/04/22 12:15:48;;;;;;;6.03;1.85;;;;;;;20.41;46.66;100955.88;5111822;28;20492;-29
2022/04/22 12:18:34;;;;;;;4.72;2.08;;;;;;;20.33;46.91;100950.38;5112897;28;20044;-29
2022/04/22 12:21:03;;;;;;;4.30;2.00;;;;;;;20.17;47.71;100951.16;5112447;28;20043;-28
2022/04/22 12:23:39;;;;;;;5.40;2.13;;;;;;;20.27;47.43;100949.78;5112409;28;20047;-31
2022/04/22 12:26:15;;;;;;;5.95;1.98;;;;;;;20.28;47.78;100951.44;5112481;28;20043;-26
2022/04/22 12:29:02;;;;;;;6.80;2.80;;;;;;;20.16;47.83;100943.84;5111500;28;20480;-35
2022/04/22 12:31:31;;;;;;;6.90;2.38;;;;;;;19.88;48.84;100954.34;5112386;28;20139;-40
2022/04/22 12:34:02;;;;;;;5.78;2.50;;;;;;;19.70;49.02;100967.97;5112347;28;20044;-30
2022/04/22 12:36:30;;;;;;;6.40;2.60;;;;;;;19.65;49.33;100950.41;5111434;28;20138;-28